WetterOnline ( https://www.wetteronline.de )

Wetter aktuell Oelsnitz/Vogtl.

Aktuelles Wetter: Plauen (389m)

6-stündlich | Neueste Meldungen
Ortszeit Temperatur Wetter
So, 22.05. 20:00 17.4° C wolkig
So, 22.05. 14:00 18.4° C wolkig
So, 22.05. 8:00 12.0° C wolkenlos
So, 22.05. 2:00 8.9° C bedeckt
Sa, 21.05. 20:00 15.4° C wolkig
Sa, 21.05. 14:00 17.1° C bewölkt
Sa, 21.05. 8:00 12.8° C wolkig
Sa, 21.05. 2:00 17.7° C bewölkt
Ortszeit Temperatur Wetter
Mo, 23.05. 1:00 9.2° C wolkig
Mo, 23.05. 0:50 9.2° C wolkig
Mo, 23.05. 0:40 9.0° C bedeckt
Mo, 23.05. 0:30 9.5° C wolkig
Mo, 23.05. 0:20 9.5° C wolkig
Mo, 23.05. 0:10 9.5° C bedeckt
Mo, 23.05. 0:00 10.0° C wolkig
So, 22.05. 23:30 10.7° C wolkig
So, 22.05. 23:00 12.3° C wolkig
So, 22.05. 22:30 13.4° C wolkig
So, 22.05. 22:00 14.1° C wolkig
Ortszeit Relative Feuchte Sichtweite
So, 22.05. 20:00 52% 60 km
So, 22.05. 14:00 45% 55 km
So, 22.05. 8:00 73% 45 km
So, 22.05. 2:00 87% 35 km
Sa, 21.05. 20:00 53% 45 km
Sa, 21.05. 14:00 52% >70 km
Sa, 21.05. 8:00 68% >70 km
Sa, 21.05. 2:00 69% 65 km
Ortszeit Relative Feuchte Sichtweite
Mo, 23.05. 1:00 86% 35 km
Mo, 23.05. 0:50 86% -
Mo, 23.05. 0:40 87% -
Mo, 23.05. 0:30 85% 40 km
Mo, 23.05. 0:20 85% -
Mo, 23.05. 0:10 85% -
Mo, 23.05. 0:00 84% 35 km
So, 22.05. 23:30 81% 40 km
So, 22.05. 23:00 75% 30 km
So, 22.05. 22:30 70% 45 km
So, 22.05. 22:00 66% 45 km
Ortszeit Niederschlagsmenge Niederschlagsart
So, 22.05. 20:00 0.0 l/m2 in 12 Std. -
So, 22.05. 14:00 0.0 l/m2 in 6 Std. -
So, 22.05. 8:00 0.0 l/m2 in 12 Std. -
So, 22.05. 2:00 0.0 l/m2 in 6 Std. -
Sa, 21.05. 20:00 0.0 l/m2 in 12 Std. -
Sa, 21.05. 14:00 0.0 l/m2 in 6 Std. -
Sa, 21.05. 8:00 0.1 l/m2 in 12 Std. -
Sa, 21.05. 2:00 0.1 l/m2 in 6 Std. Regen
Ortszeit Niederschlagsmenge Niederschlagsart
Mo, 23.05. 1:00 0.0 l/m2 in 1 Std. -
Mo, 23.05. 0:50 keine Meldung -
Mo, 23.05. 0:40 keine Meldung -
Mo, 23.05. 0:30 0.0 l/m2 in 1 Std. -
Mo, 23.05. 0:20 keine Meldung -
Mo, 23.05. 0:10 keine Meldung -
Mo, 23.05. 0:00 0.0 l/m2 in 1 Std. -
So, 22.05. 23:30 0.0 l/m2 in 1 Std. -
So, 22.05. 23:00 0.0 l/m2 in 1 Std. -
So, 22.05. 22:30 0.0 l/m2 in 1 Std. -
So, 22.05. 22:00 0.0 l/m2 in 1 Std. -
Ortszeit Stärke Spitze Richtung
km/h Bft. km/h Grad Sektor
So, 22.05. 20:00 11 2 22 60° NO
So, 22.05. 14:00 7 2 29 330° NW
So, 22.05. 8:00 4 1 7 190° S
So, 22.05. 2:00 4 1 18 180° S
Sa, 21.05. 20:00 14 3 43 300° NW
Sa, 21.05. 14:00 20 4 41 230° SW
Sa, 21.05. 8:00 11 2 40 270° W
Sa, 21.05. 2:00 18 3 40 290° W
Ortszeit Stärke Spitze Richtung
km/h Bft. km/h Grad Sektor
Mo, 23.05. 1:00 0 0 11 - -
Mo, 23.05. 0:50 2 1 - 260° W
Mo, 23.05. 0:40 4 1 - 200° S
Mo, 23.05. 0:30 7 2 7 200° S
Mo, 23.05. 0:20 7 2 - 200° S
Mo, 23.05. 0:10 4 1 - 190° S
Mo, 23.05. 0:00 4 1 7 300° NW
So, 22.05. 23:30 4 1 4 170° S
So, 22.05. 23:00 4 1 7 350° N
So, 22.05. 22:30 6 1 7 30° NO
So, 22.05. 22:00 4 1 11 50° NO
Ortszeit Untergrenze Bedeckung Gattung
total tief tief mittel hoch
So, 22.05. 20:00 9000 m 7/8 0/8 - - -
So, 22.05. 14:00 1800 m 6/8 6/8 - - -
So, 22.05. 8:00 - 0/8 0/8 - - -
So, 22.05. 2:00 3600 m 8/8 8/8 - - -
Sa, 21.05. 20:00 1800 m 7/8 1/8 - - -
Sa, 21.05. 14:00 1260 m 7/8 7/8 - - -
Sa, 21.05. 8:00 840 m 6/8 6/8 - - -
Sa, 21.05. 2:00 870 m 7/8 7/8 - - -
Ortszeit Bedeckungsgrad in Achtel und Wolkenuntergrenze
Mo, 23.05. 1:00 4(7500m) 8(9000m) 8(10500m)
Mo, 23.05. 0:50 4(7500m) 8(9000m) 8(10500m)
Mo, 23.05. 0:40 8
Mo, 23.05. 0:30 7(8700m) 7(9000m) 8(10500m)
Mo, 23.05. 0:20 7(8700m) 7(9000m) 8(10500m)
Mo, 23.05. 0:10 8
Mo, 23.05. 0:00 8(8700m) 8(9000m) 8(10500m)
So, 22.05. 23:30 8(8400m) 8(9000m) 8(10500m)
So, 22.05. 23:00 2(8700m) 8(10500m) 8(10500m)
So, 22.05. 22:30 8(9000m) 8(10500m)
So, 22.05. 22:00 8(9000m) 8(10500m) 8(10500m)
Ortszeit Luftdruck NN (hPa) Tendenz (hPa in 3 Std.)
So, 22.05. 20:00 1014 - 0,1
So, 22.05. 14:00 1015 - 1,4
So, 22.05. 8:00 1019 - 0,3
So, 22.05. 2:00 1020 - 0,5
Sa, 21.05. 20:00 1019 - 0,3
Sa, 21.05. 14:00 1020 + 0,1
Sa, 21.05. 8:00 1021 + 1,6
Sa, 21.05. 2:00 1015 + 2,1
Ortszeit Luftdruck NN (hPa) Tendenz (hPa in 3 Std.)
Mo, 23.05. 1:00 1014 - 0,3
Mo, 23.05. 0:50 1014 keine Meldung
Mo, 23.05. 0:40 1014 keine Meldung
Mo, 23.05. 0:30 1014 - 0,3
Mo, 23.05. 0:20 1014 keine Meldung
Mo, 23.05. 0:10 1014 keine Meldung
Mo, 23.05. 0:00 1014 - 0,5
So, 22.05. 23:30 1014 - 0,4
So, 22.05. 23:00 1014 - 0,6
So, 22.05. 22:30 1014 - 0,8
So, 22.05. 22:00 1014 - 0,4
Ortszeit Schneehöhe (cm)
So, 22.05. 20:00 0
So, 22.05. 14:00 0
So, 22.05. 8:00 0
So, 22.05. 2:00 0
Sa, 21.05. 20:00 0
Sa, 21.05. 14:00 0
Sa, 21.05. 8:00 0
Sa, 21.05. 2:00 0
Ortszeit Schneehöhe (cm)
Mo, 23.05. 1:00 0
Mo, 23.05. 0:50 0
Mo, 23.05. 0:40 0
Mo, 23.05. 0:30 0
Mo, 23.05. 0:20 0
Mo, 23.05. 0:10 0
Mo, 23.05. 0:00 0
So, 22.05. 23:30 0
So, 22.05. 23:00 0
So, 22.05. 22:30 0
So, 22.05. 22:00 0
Link zu dieser Seite / Seite empfehlen

Das Wetter in ...